Huvudsida
METAR-TAF:

METAR-TAF

Flygplatser :

Rørviks flygplats. Ryum

Rørvik, Norge

latitud: 64-50N, longitud: 011-09E, höjd: 4 m

Aktuellt väderrapport

Denna rapport gjordes för 23 minuter sedan, klockan 16:20 UTC
Vind 9 kt från nordost, varierande mellan nord och ost/nordost
Temperatur 23°C
Fuktighet 36%
Tryck 1015 hPa
Sikt 10 km eller mer
Inga moln under 1 500 m eller inga cumulonimbus

METAR: ENRM 221620Z 04009KT 010V070 CAVOK 23/07 Q1015

Tid: 18:43 (16:43 UTC)

Väderprognos

Denna rapport gjordes för 2 timmar och 43 minuter sedan, klockan 14:00 UTC
Prognos gäller från 22 kl. 15 UTC till 22 kl. 22 UTC
Vind 10 kt från nord/nordost
Sikt 10 km eller mer
Inga moln under 1 500 m eller inga cumulonimbus
Blir
från 22 kl. 19 UTC till 22 kl. 21 UTC
Vind 10 kt från sydost

TAF: ENRM 221400Z 2215/2222 03010KT CAVOK BECMG 2219/2221 13010KT

Aktuella väderrapporter och prognoser från 4000 flygplatser (METAR- och TAF-rapporter).

De tillgängliga stationerna syns som gula och röda prickar på kartan.

För musen över prickarna för att se namnen på stationerna.

Klicka sedan för att få väderrapporter och prognoser.

För att ändra kartan: Klicka på de gröna knapparna med ett svart kors på för att zooma in; den gröna knappen med ett streck på för att zooma ut; eller på de gröna pilarna för angränsande kartor.


METAR-TAF: